sensor_id;sensor_type;location;lat;lon;timestamp;temperature;humidity
51486;DHT22;37565;51.352;6.412;2022-08-11T00:01:03;25.10;85.00
51486;DHT22;37565;51.352;6.412;2022-08-11T00:03:34;25.10;85.00
51486;DHT22;37565;51.352;6.412;2022-08-11T00:06:10;25.10;84.30
51486;DHT22;37565;51.352;6.412;2022-08-11T00:08:40;25.10;84.20
51486;DHT22;37565;51.352;6.412;2022-08-11T00:11:10;25.10;84.30
51486;DHT22;37565;51.352;6.412;2022-08-11T00:13:41;25.10;84.10
51486;DHT22;37565;51.352;6.412;2022-08-11T00:16:13;25.10;84.00
51486;DHT22;37565;51.352;6.412;2022-08-11T00:18:45;25.10;84.20
51486;DHT22;37565;51.352;6.412;2022-08-11T00:21:14;25.10;84.10
51486;DHT22;37565;51.352;6.412;2022-08-11T00:23:44;25.10;84.30
51486;DHT22;37565;51.352;6.412;2022-08-11T00:26:13;25.10;84.10
51486;DHT22;37565;51.352;6.412;2022-08-11T00:28:42;25.10;85.20
51486;DHT22;37565;51.352;6.412;2022-08-11T00:31:20;25.10;84.40
51486;DHT22;37565;51.352;6.412;2022-08-11T00:33:50;25.10;84.00
51486;DHT22;37565;51.352;6.412;2022-08-11T00:36:24;25.00;83.90
51486;DHT22;37565;51.352;6.412;2022-08-11T00:38:54;25.00;83.80
51486;DHT22;37565;51.352;6.412;2022-08-11T00:41:33;25.00;84.70
51486;DHT22;37565;51.352;6.412;2022-08-11T00:44:26;25.10;86.60
51486;DHT22;37565;51.352;6.412;2022-08-11T00:47:09;25.00;88.50
51486;DHT22;37565;51.352;6.412;2022-08-11T00:49:48;25.00;88.80
51486;DHT22;37565;51.352;6.412;2022-08-11T00:52:35;25.00;88.80
51486;DHT22;37565;51.352;6.412;2022-08-11T00:58:50;25.00;89.20
51486;DHT22;37565;51.352;6.412;2022-08-11T01:01:33;25.00;88.50
51486;DHT22;37565;51.352;6.412;2022-08-11T01:04:29;25.00;88.80
51486;DHT22;37565;51.352;6.412;2022-08-11T01:10:57;24.90;89.10
51486;DHT22;37565;51.352;6.412;2022-08-11T01:13:58;25.00;89.30
51486;DHT22;37565;51.352;6.412;2022-08-11T01:20:07;25.00;89.00
51486;DHT22;37565;51.352;6.412;2022-08-11T01:26:21;24.90;89.00
51486;DHT22;37565;51.352;6.412;2022-08-11T01:35:29;24.90;90.00
51486;DHT22;37565;51.352;6.412;2022-08-11T01:38:34;24.90;89.30
51486;DHT22;37565;51.352;6.412;2022-08-11T01:41:28;24.90;88.60
51486;DHT22;37565;51.352;6.412;2022-08-11T01:44:48;24.90;89.50
51486;DHT22;37565;51.352;6.412;2022-08-11T01:47:28;24.90;89.30
51486;DHT22;37565;51.352;6.412;2022-08-11T01:50:30;24.90;88.60
51486;DHT22;37565;51.352;6.412;2022-08-11T01:53:09;24.90;88.50
51486;DHT22;37565;51.352;6.412;2022-08-11T01:55:45;24.90;88.60
51486;DHT22;37565;51.352;6.412;2022-08-11T01:58:24;24.90;88.30
51486;DHT22;37565;51.352;6.412;2022-08-11T02:01:20;24.80;88.30
51486;DHT22;37565;51.352;6.412;2022-08-11T02:03:55;24.90;88.50
51486;DHT22;37565;51.352;6.412;2022-08-11T02:06:31;24.80;88.40
51486;DHT22;37565;51.352;6.412;2022-08-11T02:12:27;24.80;87.60
51486;DHT22;37565;51.352;6.412;2022-08-11T02:15:03;24.80;87.30
51486;DHT22;37565;51.352;6.412;2022-08-11T02:17:46;24.80;87.30
51486;DHT22;37565;51.352;6.412;2022-08-11T02:20:23;24.80;88.00
51486;DHT22;37565;51.352;6.412;2022-08-11T02:23:24;24.80;87.80
51486;DHT22;37565;51.352;6.412;2022-08-11T02:26:33;24.80;87.50
51486;DHT22;37565;51.352;6.412;2022-08-11T02:29:10;24.80;87.80
51486;DHT22;37565;51.352;6.412;2022-08-11T02:31:45;24.80;88.30
51486;DHT22;37565;51.352;6.412;2022-08-11T02:35:00;24.80;88.40
51486;DHT22;37565;51.352;6.412;2022-08-11T02:37:40;24.80;88.70
51486;DHT22;37565;51.352;6.412;2022-08-11T02:40:21;24.80;89.00
51486;DHT22;37565;51.352;6.412;2022-08-11T02:43:10;24.80;88.80
51486;DHT22;37565;51.352;6.412;2022-08-11T02:45:51;24.80;87.90
51486;DHT22;37565;51.352;6.412;2022-08-11T02:48:31;24.80;88.90
51486;DHT22;37565;51.352;6.412;2022-08-11T02:51:28;24.80;88.90
51486;DHT22;37565;51.352;6.412;2022-08-11T02:54:04;24.80;89.30
51486;DHT22;37565;51.352;6.412;2022-08-11T02:56:44;24.70;89.50
51486;DHT22;37565;51.352;6.412;2022-08-11T02:59:36;24.70;89.10
51486;DHT22;37565;51.352;6.412;2022-08-11T03:02:39;24.70;89.80
51486;DHT22;37565;51.352;6.412;2022-08-11T03:05:23;24.70;90.00
51486;DHT22;37565;51.352;6.412;2022-08-11T03:08:10;24.70;90.00
51486;DHT22;37565;51.352;6.412;2022-08-11T03:10:47;24.70;90.00
51486;DHT22;37565;51.352;6.412;2022-08-11T03:13:41;24.70;90.10
51486;DHT22;37565;51.352;6.412;2022-08-11T03:16:32;24.70;90.20
51486;DHT22;37565;51.352;6.412;2022-08-11T03:19:21;24.70;90.30
51486;DHT22;37565;51.352;6.412;2022-08-11T03:21:58;24.70;90.10
51486;DHT22;37565;51.352;6.412;2022-08-11T03:24:39;24.70;90.40
51486;DHT22;37565;51.352;6.412;2022-08-11T03:27:23;24.70;90.60
51486;DHT22;37565;51.352;6.412;2022-08-11T03:30:03;24.70;90.70
51486;DHT22;37565;51.352;6.412;2022-08-11T03:32:45;24.70;90.40
51486;DHT22;37565;51.352;6.412;2022-08-11T03:35:40;24.70;90.60
51486;DHT22;37565;51.352;6.412;2022-08-11T03:38:12;24.70;90.60
51486;DHT22;37565;51.352;6.412;2022-08-11T03:40:58;24.70;90.90
51486;DHT22;37565;51.352;6.412;2022-08-11T03:44:09;24.60;90.80
51486;DHT22;37565;51.352;6.412;2022-08-11T03:46:58;24.60;91.00
51486;DHT22;37565;51.352;6.412;2022-08-11T03:49:35;24.60;91.00
51486;DHT22;37565;51.352;6.412;2022-08-11T03:52:20;24.60;91.00
51486;DHT22;37565;51.352;6.412;2022-08-11T03:54:58;24.60;90.90
51486;DHT22;37565;51.352;6.412;2022-08-11T03:57:51;24.60;91.00
51486;DHT22;37565;51.352;6.412;2022-08-11T04:03:52;24.60;91.20
51486;DHT22;37565;51.352;6.412;2022-08-11T04:07:04;24.60;90.80
51486;DHT22;37565;51.352;6.412;2022-08-11T04:13:18;24.60;91.40
51486;DHT22;37565;51.352;6.412;2022-08-11T04:16:05;24.60;91.40
51486;DHT22;37565;51.352;6.412;2022-08-11T04:19:10;24.60;91.40
51486;DHT22;37565;51.352;6.412;2022-08-11T04:25:24;24.60;91.40
51486;DHT22;37565;51.352;6.412;2022-08-11T04:31:33;24.50;91.50
51486;DHT22;37565;51.352;6.412;2022-08-11T04:34:39;24.60;91.70
51486;DHT22;37565;51.352;6.412;2022-08-11T04:37:35;24.50;91.70
51486;DHT22;37565;51.352;6.412;2022-08-11T04:47:18;24.50;91.80
51486;DHT22;37565;51.352;6.412;2022-08-11T04:50:36;24.50;91.90
51486;DHT22;37565;51.352;6.412;2022-08-11T04:53:53;24.50;91.80
51486;DHT22;37565;51.352;6.412;2022-08-11T04:56:43;24.50;91.90
51486;DHT22;37565;51.352;6.412;2022-08-11T04:59:47;24.50;92.00
51486;DHT22;37565;51.352;6.412;2022-08-11T05:03:25;24.50;91.90
51486;DHT22;37565;51.352;6.412;2022-08-11T05:06:27;24.50;92.10
51486;DHT22;37565;51.352;6.412;2022-08-11T05:09:20;24.50;92.10
51486;DHT22;37565;51.352;6.412;2022-08-11T05:12:01;24.50;92.20
51486;DHT22;37565;51.352;6.412;2022-08-11T05:14:35;24.50;92.20
51486;DHT22;37565;51.352;6.412;2022-08-11T05:17:39;24.50;92.30
51486;DHT22;37565;51.352;6.412;2022-08-11T05:20:29;24.50;92.20
51486;DHT22;37565;51.352;6.412;2022-08-11T05:23:17;24.50;92.00
51486;DHT22;37565;51.352;6.412;2022-08-11T05:26:18;24.50;92.80
51486;DHT22;37565;51.352;6.412;2022-08-11T05:29:27;24.40;92.80
51486;DHT22;37565;51.352;6.412;2022-08-11T05:32:21;24.50;92.40
51486;DHT22;37565;51.352;6.412;2022-08-11T05:35:07;24.40;92.80
51486;DHT22;37565;51.352;6.412;2022-08-11T05:37:54;24.50;92.60
51486;DHT22;37565;51.352;6.412;2022-08-11T05:40:49;24.40;92.10
51486;DHT22;37565;51.352;6.412;2022-08-11T05:43:40;24.50;90.10
51486;DHT22;37565;51.352;6.412;2022-08-11T05:46:48;24.50;88.50
51486;DHT22;37565;51.352;6.412;2022-08-11T05:49:34;24.50;86.90
51486;DHT22;37565;51.352;6.412;2022-08-11T05:52:25;24.50;85.90
51486;DHT22;37565;51.352;6.412;2022-08-11T05:55:15;24.40;84.80
51486;DHT22;37565;51.352;6.412;2022-08-11T05:58:04;24.40;84.00
51486;DHT22;37565;51.352;6.412;2022-08-11T06:00:40;24.40;83.20
51486;DHT22;37565;51.352;6.412;2022-08-11T06:03:09;24.40;82.60
51486;DHT22;37565;51.352;6.412;2022-08-11T06:05:39;24.40;82.00
51486;DHT22;37565;51.352;6.412;2022-08-11T06:08:11;24.40;81.80
51486;DHT22;37565;51.352;6.412;2022-08-11T06:10:42;24.40;81.60
51486;DHT22;37565;51.352;6.412;2022-08-11T06:13:15;24.40;81.40
51486;DHT22;37565;51.352;6.412;2022-08-11T06:15:45;24.40;81.20
51486;DHT22;37565;51.352;6.412;2022-08-11T06:18:13;24.40;80.90
51486;DHT22;37565;51.352;6.412;2022-08-11T06:20:46;24.30;80.80
51486;DHT22;37565;51.352;6.412;2022-08-11T06:23:16;24.40;80.70
51486;DHT22;37565;51.352;6.412;2022-08-11T06:25:46;24.30;80.50
51486;DHT22;37565;51.352;6.412;2022-08-11T06:28:16;24.40;80.50
51486;DHT22;37565;51.352;6.412;2022-08-11T06:30:48;24.30;80.30
51486;DHT22;37565;51.352;6.412;2022-08-11T06:33:20;24.30;80.40
51486;DHT22;37565;51.352;6.412;2022-08-11T06:35:58;24.40;80.40
51486;DHT22;37565;51.352;6.412;2022-08-11T06:38:40;24.40;80.20
51486;DHT22;37565;51.352;6.412;2022-08-11T06:41:17;24.30;80.20
51486;DHT22;37565;51.352;6.412;2022-08-11T06:44:20;24.30;80.30
51486;DHT22;37565;51.352;6.412;2022-08-11T06:46:50;24.40;80.30
51486;DHT22;37565;51.352;6.412;2022-08-11T06:49:20;24.40;80.40
51486;DHT22;37565;51.352;6.412;2022-08-11T06:52:05;24.40;80.50
51486;DHT22;37565;51.352;6.412;2022-08-11T06:54:54;24.30;80.60
51486;DHT22;37565;51.352;6.412;2022-08-11T06:57:32;24.40;80.70
51486;DHT22;37565;51.352;6.412;2022-08-11T07:00:20;24.40;80.90
51486;DHT22;37565;51.352;6.412;2022-08-11T07:02:58;24.40;80.80
51486;DHT22;37565;51.352;6.412;2022-08-11T07:05:40;24.40;80.70
51486;DHT22;37565;51.352;6.412;2022-08-11T07:08:53;24.40;80.50
51486;DHT22;37565;51.352;6.412;2022-08-11T07:12:00;24.40;80.20
51486;DHT22;37565;51.352;6.412;2022-08-11T07:14:50;24.40;79.90
51486;DHT22;37565;51.352;6.412;2022-08-11T07:17:42;24.40;80.20
51486;DHT22;37565;51.352;6.412;2022-08-11T07:20:16;24.30;80.00
51486;DHT22;37565;51.352;6.412;2022-08-11T07:23:03;24.40;79.60
51486;DHT22;37565;51.352;6.412;2022-08-11T07:25:52;24.30;79.30
51486;DHT22;37565;51.352;6.412;2022-08-11T07:28:43;24.30;78.90
51486;DHT22;37565;51.352;6.412;2022-08-11T07:31:34;24.30;79.00
51486;DHT22;37565;51.352;6.412;2022-08-11T07:34:18;24.30;79.50
51486;DHT22;37565;51.352;6.412;2022-08-11T07:36:50;24.30;80.80
51486;DHT22;37565;51.352;6.412;2022-08-11T07:39:20;24.30;79.90
51486;DHT22;37565;51.352;6.412;2022-08-11T07:41:51;24.40;80.90
51486;DHT22;37565;51.352;6.412;2022-08-11T07:44:20;24.40;80.70
51486;DHT22;37565;51.352;6.412;2022-08-11T07:46:56;24.40;79.50
51486;DHT22;37565;51.352;6.412;2022-08-11T07:49:47;24.40;79.90
51486;DHT22;37565;51.352;6.412;2022-08-11T07:52:35;24.40;80.00
51486;DHT22;37565;51.352;6.412;2022-08-11T07:55:11;24.50;81.10
51486;DHT22;37565;51.352;6.412;2022-08-11T07:57:42;24.50;81.40
51486;DHT22;37565;51.352;6.412;2022-08-11T08:00:47;24.50;81.10
51486;DHT22;37565;51.352;6.412;2022-08-11T08:03:48;24.50;81.30
51486;DHT22;37565;51.352;6.412;2022-08-11T08:06:36;24.60;80.60
51486;DHT22;37565;51.352;6.412;2022-08-11T08:09:24;24.60;78.80
51486;DHT22;37565;51.352;6.412;2022-08-11T08:12:11;24.60;77.60
51486;DHT22;37565;51.352;6.412;2022-08-11T08:14:58;24.70;78.60
51486;DHT22;37565;51.352;6.412;2022-08-11T08:17:43;24.70;78.80
51486;DHT22;37565;51.352;6.412;2022-08-11T08:20:45;24.70;76.80
51486;DHT22;37565;51.352;6.412;2022-08-11T08:23:15;24.70;77.60
51486;DHT22;37565;51.352;6.412;2022-08-11T08:25:44;24.70;76.50
51486;DHT22;37565;51.352;6.412;2022-08-11T08:28:15;24.80;77.80
51486;DHT22;37565;51.352;6.412;2022-08-11T08:30:44;24.80;76.60
51486;DHT22;37565;51.352;6.412;2022-08-11T08:33:18;24.80;76.50
51486;DHT22;37565;51.352;6.412;2022-08-11T08:35:48;24.80;76.70
51486;DHT22;37565;51.352;6.412;2022-08-11T08:38:23;24.80;76.80
51486;DHT22;37565;51.352;6.412;2022-08-11T08:40:52;24.80;76.90
51486;DHT22;37565;51.352;6.412;2022-08-11T08:43:23;24.80;77.70
51486;DHT22;37565;51.352;6.412;2022-08-11T08:45:54;24.80;77.80
51486;DHT22;37565;51.352;6.412;2022-08-11T08:48:25;24.80;78.10
51486;DHT22;37565;51.352;6.412;2022-08-11T08:51:00;24.80;78.20
51486;DHT22;37565;51.352;6.412;2022-08-11T08:53:51;24.80;78.40
51486;DHT22;37565;51.352;6.412;2022-08-11T08:56:26;24.90;78.90
51486;DHT22;37565;51.352;6.412;2022-08-11T08:58:56;24.80;79.00
51486;DHT22;37565;51.352;6.412;2022-08-11T09:01:28;24.90;79.30
51486;DHT22;37565;51.352;6.412;2022-08-11T09:03:57;24.90;79.90
51486;DHT22;37565;51.352;6.412;2022-08-11T09:06:36;24.90;80.10
51486;DHT22;37565;51.352;6.412;2022-08-11T09:09:10;24.90;80.50
51486;DHT22;37565;51.352;6.412;2022-08-11T09:11:40;24.90;81.20
51486;DHT22;37565;51.352;6.412;2022-08-11T09:14:21;24.90;81.90
51486;DHT22;37565;51.352;6.412;2022-08-11T09:16:51;24.90;81.90
51486;DHT22;37565;51.352;6.412;2022-08-11T09:19:20;24.90;82.30
51486;DHT22;37565;51.352;6.412;2022-08-11T09:21:50;24.90;82.80
51486;DHT22;37565;51.352;6.412;2022-08-11T09:24:40;25.00;83.20
51486;DHT22;37565;51.352;6.412;2022-08-11T09:27:26;25.00;83.80
51486;DHT22;37565;51.352;6.412;2022-08-11T09:29:55;25.00;83.90
51486;DHT22;37565;51.352;6.412;2022-08-11T09:32:23;25.00;84.20
51486;DHT22;37565;51.352;6.412;2022-08-11T09:34:53;25.00;84.40
51486;DHT22;37565;51.352;6.412;2022-08-11T09:37:22;25.00;84.70
51486;DHT22;37565;51.352;6.412;2022-08-11T09:40:23;25.00;84.90
51486;DHT22;37565;51.352;6.412;2022-08-11T09:42:56;25.00;85.20
51486;DHT22;37565;51.352;6.412;2022-08-11T09:45:43;25.00;85.50
51486;DHT22;37565;51.352;6.412;2022-08-11T09:48:16;25.00;85.70
51486;DHT22;37565;51.352;6.412;2022-08-11T09:50:48;25.00;86.10
51486;DHT22;37565;51.352;6.412;2022-08-11T09:53:18;25.00;86.50
51486;DHT22;37565;51.352;6.412;2022-08-11T09:56:12;25.00;86.70
51486;DHT22;37565;51.352;6.412;2022-08-11T09:58:59;25.10;87.30
51486;DHT22;37565;51.352;6.412;2022-08-11T10:01:30;25.10;87.50
51486;DHT22;37565;51.352;6.412;2022-08-11T10:04:02;25.10;87.80
51486;DHT22;37565;51.352;6.412;2022-08-11T10:06:30;25.10;87.40
51486;DHT22;37565;51.352;6.412;2022-08-11T10:09:36;25.10;87.40
51486;DHT22;37565;51.352;6.412;2022-08-11T10:12:09;25.10;87.80
51486;DHT22;37565;51.352;6.412;2022-08-11T10:14:42;25.10;87.70
51486;DHT22;37565;51.352;6.412;2022-08-11T10:17:31;25.10;88.00
51486;DHT22;37565;51.352;6.412;2022-08-11T10:20:00;25.10;88.80
51486;DHT22;37565;51.352;6.412;2022-08-11T10:22:34;25.10;89.20
51486;DHT22;37565;51.352;6.412;2022-08-11T10:25:20;25.10;89.80
51486;DHT22;37565;51.352;6.412;2022-08-11T10:28:08;25.10;90.00
51486;DHT22;37565;51.352;6.412;2022-08-11T10:30:59;25.10;90.10
51486;DHT22;37565;51.352;6.412;2022-08-11T10:34:02;25.10;90.20
51486;DHT22;37565;51.352;6.412;2022-08-11T10:36:33;25.20;90.40
51486;DHT22;37565;51.352;6.412;2022-08-11T10:39:05;25.10;90.30
51486;DHT22;37565;51.352;6.412;2022-08-11T10:41:34;25.20;89.70
51486;DHT22;37565;51.352;6.412;2022-08-11T10:44:38;25.10;90.20
51486;DHT22;37565;51.352;6.412;2022-08-11T10:47:08;25.20;90.70
51486;DHT22;37565;51.352;6.412;2022-08-11T10:49:55;25.10;90.60
51486;DHT22;37565;51.352;6.412;2022-08-11T10:52:43;25.20;90.70
51486;DHT22;37565;51.352;6.412;2022-08-11T10:55:29;25.20;90.70
51486;DHT22;37565;51.352;6.412;2022-08-11T10:58:15;25.20;90.80
51486;DHT22;37565;51.352;6.412;2022-08-11T11:01:03;25.20;91.00
51486;DHT22;37565;51.352;6.412;2022-08-11T11:03:33;25.20;91.00
51486;DHT22;37565;51.352;6.412;2022-08-11T11:06:07;25.20;91.20
51486;DHT22;37565;51.352;6.412;2022-08-11T11:08:59;25.20;91.30
51486;DHT22;37565;51.352;6.412;2022-08-11T11:14:15;25.30;91.80
51486;DHT22;37565;51.352;6.412;2022-08-11T11:17:14;25.30;92.20
51486;DHT22;37565;51.352;6.412;2022-08-11T11:20:03;25.30;92.10
51486;DHT22;37565;51.352;6.412;2022-08-11T11:22:32;25.30;92.70
51486;DHT22;37565;51.352;6.412;2022-08-11T11:25:16;25.30;92.80
51486;DHT22;37565;51.352;6.412;2022-08-11T11:27:58;25.30;92.90
51486;DHT22;37565;51.352;6.412;2022-08-11T11:30:35;25.30;93.00
51486;DHT22;37565;51.352;6.412;2022-08-11T11:33:12;25.30;93.10
51486;DHT22;37565;51.352;6.412;2022-08-11T11:35:49;25.30;93.40
51486;DHT22;37565;51.352;6.412;2022-08-11T11:38:21;25.30;93.30
51486;DHT22;37565;51.352;6.412;2022-08-11T11:40:50;25.30;93.20
51486;DHT22;37565;51.352;6.412;2022-08-11T11:43:34;25.30;93.00
51486;DHT22;37565;51.352;6.412;2022-08-11T11:46:04;25.30;94.00
51486;DHT22;37565;51.352;6.412;2022-08-11T11:48:35;25.40;93.00
51486;DHT22;37565;51.352;6.412;2022-08-11T11:51:03;25.40;89.90
51486;DHT22;37565;51.352;6.412;2022-08-11T11:53:32;25.50;87.30
51486;DHT22;37565;51.352;6.412;2022-08-11T11:56:02;25.50;84.80
51486;DHT22;37565;51.352;6.412;2022-08-11T11:58:30;25.50;83.80
51486;DHT22;37565;51.352;6.412;2022-08-11T12:01:16;25.50;80.70
51486;DHT22;37565;51.352;6.412;2022-08-11T12:03:53;25.50;78.10
51486;DHT22;37565;51.352;6.412;2022-08-11T12:06:23;25.60;78.80
51486;DHT22;37565;51.352;6.412;2022-08-11T12:08:55;25.60;76.90
51486;DHT22;37565;51.352;6.412;2022-08-11T12:11:25;25.60;75.70
51486;DHT22;37565;51.352;6.412;2022-08-11T12:14:15;25.60;70.30
51486;DHT22;37565;51.352;6.412;2022-08-11T12:16:45;25.70;69.70
51486;DHT22;37565;51.352;6.412;2022-08-11T12:19:17;25.80;70.80
51486;DHT22;37565;51.352;6.412;2022-08-11T12:21:47;25.80;71.10
51486;DHT22;37565;51.352;6.412;2022-08-11T12:24:34;25.80;73.60
51486;DHT22;37565;51.352;6.412;2022-08-11T12:27:20;25.70;75.20
51486;DHT22;37565;51.352;6.412;2022-08-11T12:29:54;25.70;75.40
51486;DHT22;37565;51.352;6.412;2022-08-11T12:32:26;25.70;75.80
51486;DHT22;37565;51.352;6.412;2022-08-11T12:34:55;25.60;77.20
51486;DHT22;37565;51.352;6.412;2022-08-11T12:37:29;25.70;78.90
51486;DHT22;37565;51.352;6.412;2022-08-11T12:40:00;25.70;79.90
51486;DHT22;37565;51.352;6.412;2022-08-11T12:43:08;25.60;80.70
51486;DHT22;37565;51.352;6.412;2022-08-11T12:46:13;25.60;81.60
51486;DHT22;37565;51.352;6.412;2022-08-11T12:48:44;25.60;82.60
51486;DHT22;37565;51.352;6.412;2022-08-11T12:51:35;25.60;83.00
51486;DHT22;37565;51.352;6.412;2022-08-11T12:54:54;25.60;84.20
51486;DHT22;37565;51.352;6.412;2022-08-11T12:57:32;25.60;84.70
51486;DHT22;37565;51.352;6.412;2022-08-11T13:00:18;25.60;85.20
51486;DHT22;37565;51.352;6.412;2022-08-11T13:03:07;25.60;85.60
51486;DHT22;37565;51.352;6.412;2022-08-11T13:05:55;25.60;85.90
51486;DHT22;37565;51.352;6.412;2022-08-11T13:08:26;25.60;86.40
51486;DHT22;37565;51.352;6.412;2022-08-11T13:10:57;25.60;86.80
51486;DHT22;37565;51.352;6.412;2022-08-11T13:13:45;25.60;87.30
51486;DHT22;37565;51.352;6.412;2022-08-11T13:16:26;25.50;87.30
51486;DHT22;37565;51.352;6.412;2022-08-11T13:18:55;25.60;88.50
51486;DHT22;37565;51.352;6.412;2022-08-11T13:21:25;25.60;88.50
51486;DHT22;37565;51.352;6.412;2022-08-11T13:23:55;25.70;89.00
51486;DHT22;37565;51.352;6.412;2022-08-11T13:26:30;25.60;88.80
51486;DHT22;37565;51.352;6.412;2022-08-11T13:29:19;25.70;89.00
51486;DHT22;37565;51.352;6.412;2022-08-11T13:31:47;25.70;89.40
51486;DHT22;37565;51.352;6.412;2022-08-11T13:34:16;25.70;89.60
51486;DHT22;37565;51.352;6.412;2022-08-11T13:36:48;25.70;89.80
51486;DHT22;37565;51.352;6.412;2022-08-11T13:39:20;25.70;89.90
51486;DHT22;37565;51.352;6.412;2022-08-11T13:41:51;25.70;90.00
51486;DHT22;37565;51.352;6.412;2022-08-11T13:44:24;25.70;90.20
51486;DHT22;37565;51.352;6.412;2022-08-11T13:46:56;25.70;90.20
51486;DHT22;37565;51.352;6.412;2022-08-11T13:49:25;25.70;90.20
51486;DHT22;37565;51.352;6.412;2022-08-11T13:51:54;25.70;90.40
51486;DHT22;37565;51.352;6.412;2022-08-11T13:54:27;25.70;90.50
51486;DHT22;37565;51.352;6.412;2022-08-11T13:57:00;25.80;90.70
51486;DHT22;37565;51.352;6.412;2022-08-11T13:59:34;25.80;91.50
51486;DHT22;37565;51.352;6.412;2022-08-11T14:02:26;25.70;91.80
51486;DHT22;37565;51.352;6.412;2022-08-11T14:04:58;25.70;91.30
51486;DHT22;37565;51.352;6.412;2022-08-11T14:07:33;25.70;91.30
51486;DHT22;37565;51.352;6.412;2022-08-11T14:10:05;25.80;91.00
51486;DHT22;37565;51.352;6.412;2022-08-11T14:12:36;25.70;91.40
51486;DHT22;37565;51.352;6.412;2022-08-11T14:15:23;25.70;91.60
51486;DHT22;37565;51.352;6.412;2022-08-11T14:17:55;25.80;91.90
51486;DHT22;37565;51.352;6.412;2022-08-11T14:20:30;25.80;92.30
51486;DHT22;37565;51.352;6.412;2022-08-11T14:23:22;25.80;91.90
51486;DHT22;37565;51.352;6.412;2022-08-11T14:25:54;25.80;92.20
51486;DHT22;37565;51.352;6.412;2022-08-11T14:28:40;25.80;92.20
51486;DHT22;37565;51.352;6.412;2022-08-11T14:31:12;25.80;91.70
51486;DHT22;37565;51.352;6.412;2022-08-11T14:33:42;25.80;91.30
51486;DHT22;37565;51.352;6.412;2022-08-11T14:36:29;25.80;91.50
51486;DHT22;37565;51.352;6.412;2022-08-11T14:39:00;25.80;92.00
51486;DHT22;37565;51.352;6.412;2022-08-11T14:41:31;25.80;92.00
51486;DHT22;37565;51.352;6.412;2022-08-11T14:44:40;25.80;92.10
51486;DHT22;37565;51.352;6.412;2022-08-11T14:47:28;25.80;92.00
51486;DHT22;37565;51.352;6.412;2022-08-11T14:49:58;25.90;92.10
51486;DHT22;37565;51.352;6.412;2022-08-11T14:52:41;25.80;92.00
51486;DHT22;37565;51.352;6.412;2022-08-11T14:55:11;25.90;92.20
51486;DHT22;37565;51.352;6.412;2022-08-11T14:57:59;25.80;92.00
51486;DHT22;37565;51.352;6.412;2022-08-11T15:00:28;25.80;92.10
51486;DHT22;37565;51.352;6.412;2022-08-11T15:02:58;25.90;92.30
51486;DHT22;37565;51.352;6.412;2022-08-11T15:05:46;25.90;92.20
51486;DHT22;37565;51.352;6.412;2022-08-11T15:08:26;25.90;92.20
51486;DHT22;37565;51.352;6.412;2022-08-11T15:11:22;25.90;92.20
51486;DHT22;37565;51.352;6.412;2022-08-11T15:14:11;25.90;92.20
51486;DHT22;37565;51.352;6.412;2022-08-11T15:16:41;25.90;92.30
51486;DHT22;37565;51.352;6.412;2022-08-11T15:19:28;25.90;92.40
51486;DHT22;37565;51.352;6.412;2022-08-11T15:22:06;25.90;92.20
51486;DHT22;37565;51.352;6.412;2022-08-11T15:24:54;25.90;92.20
51486;DHT22;37565;51.352;6.412;2022-08-11T15:27:24;25.90;91.90
51486;DHT22;37565;51.352;6.412;2022-08-11T15:30:13;25.90;92.30
51486;DHT22;37565;51.352;6.412;2022-08-11T15:33:03;25.90;92.50
51486;DHT22;37565;51.352;6.412;2022-08-11T15:35:50;26.00;92.20
51486;DHT22;37565;51.352;6.412;2022-08-11T15:38:43;26.00;92.20
51486;DHT22;37565;51.352;6.412;2022-08-11T15:41:22;26.00;91.90
51486;DHT22;37565;51.352;6.412;2022-08-11T15:44:11;25.90;92.00
51486;DHT22;37565;51.352;6.412;2022-08-11T15:47:22;26.00;92.20
51486;DHT22;37565;51.352;6.412;2022-08-11T15:49:58;25.90;92.00
51486;DHT22;37565;51.352;6.412;2022-08-11T15:52:45;26.00;91.90
51486;DHT22;37565;51.352;6.412;2022-08-11T15:55:15;26.00;91.60
51486;DHT22;37565;51.352;6.412;2022-08-11T15:57:46;26.00;90.80
51486;DHT22;37565;51.352;6.412;2022-08-11T16:00:35;26.00;91.20
51486;DHT22;37565;51.352;6.412;2022-08-11T16:03:33;26.00;91.80
51486;DHT22;37565;51.352;6.412;2022-08-11T16:06:35;26.00;92.10
51486;DHT22;37565;51.352;6.412;2022-08-11T16:09:09;26.10;92.50
51486;DHT22;37565;51.352;6.412;2022-08-11T16:11:45;26.10;92.70
51486;DHT22;37565;51.352;6.412;2022-08-11T16:14:15;26.10;93.10
51486;DHT22;37565;51.352;6.412;2022-08-11T16:17:02;26.10;92.70
51486;DHT22;37565;51.352;6.412;2022-08-11T16:19:33;26.10;93.10
51486;DHT22;37565;51.352;6.412;2022-08-11T16:22:07;26.10;92.90
51486;DHT22;37565;51.352;6.412;2022-08-11T16:24:38;26.10;93.00
51486;DHT22;37565;51.352;6.412;2022-08-11T16:27:30;26.10;92.50
51486;DHT22;37565;51.352;6.412;2022-08-11T16:30:01;26.10;93.10
51486;DHT22;37565;51.352;6.412;2022-08-11T16:32:31;26.10;93.00
51486;DHT22;37565;51.352;6.412;2022-08-11T16:35:04;26.10;92.60
51486;DHT22;37565;51.352;6.412;2022-08-11T16:37:51;26.10;91.70
51486;DHT22;37565;51.352;6.412;2022-08-11T16:40:38;26.10;92.80
51486;DHT22;37565;51.352;6.412;2022-08-11T16:43:10;26.10;92.20
51486;DHT22;37565;51.352;6.412;2022-08-11T16:45:57;26.10;92.40
51486;DHT22;37565;51.352;6.412;2022-08-11T16:48:59;26.10;92.80
51486;DHT22;37565;51.352;6.412;2022-08-11T16:51:28;26.10;93.10
51486;DHT22;37565;51.352;6.412;2022-08-11T16:53:58;26.10;92.80
51486;DHT22;37565;51.352;6.412;2022-08-11T16:56:35;26.10;93.00
51486;DHT22;37565;51.352;6.412;2022-08-11T16:59:07;26.10;92.00
51486;DHT22;37565;51.352;6.412;2022-08-11T17:01:46;26.10;92.20
51486;DHT22;37565;51.352;6.412;2022-08-11T17:04:19;26.10;91.70
51486;DHT22;37565;51.352;6.412;2022-08-11T17:07:06;26.10;92.30
51486;DHT22;37565;51.352;6.412;2022-08-11T17:10:15;26.10;92.00
51486;DHT22;37565;51.352;6.412;2022-08-11T17:13:23;26.20;92.70
51486;DHT22;37565;51.352;6.412;2022-08-11T17:15:56;26.20;92.70
51486;DHT22;37565;51.352;6.412;2022-08-11T17:18:43;26.10;92.90
51486;DHT22;37565;51.352;6.412;2022-08-11T17:21:20;26.20;93.30
51486;DHT22;37565;51.352;6.412;2022-08-11T17:23:52;26.20;93.50
51486;DHT22;37565;51.352;6.412;2022-08-11T17:26:25;26.10;93.40
51486;DHT22;37565;51.352;6.412;2022-08-11T17:28:59;26.10;93.10
51486;DHT22;37565;51.352;6.412;2022-08-11T17:31:28;26.10;92.90
51486;DHT22;37565;51.352;6.412;2022-08-11T17:34:13;26.10;92.50
51486;DHT22;37565;51.352;6.412;2022-08-11T17:36:59;26.10;92.20
51486;DHT22;37565;51.352;6.412;2022-08-11T17:39:30;26.10;93.10
51486;DHT22;37565;51.352;6.412;2022-08-11T17:41:59;26.10;92.40
51486;DHT22;37565;51.352;6.412;2022-08-11T17:44:46;26.10;93.10
51486;DHT22;37565;51.352;6.412;2022-08-11T17:47:33;26.10;93.40